Carrizozo, New Mexico
Current Conditions -  °F | °C
As of 11:55 AM on Sunday 23 Nov 2014 (Local Time) from KSRR Reporting Station
Broken Clouds Broken Clouds  
Wind Chill: 34°   Ceiling: 5000
Heat Index: 43°   Visibility: 10mi
Dew Point: 19°   Wind: 21mph
Humidity: 39%   Direction: 310°NW
Pressure: 29.83"   Gusts: 41mph
Location:  33.64°N, 105.88°W
Report Text: KSRR 231855Z AUTO 31018G36KT 10SM FEW038 BKN050 06/M07 A2983 RMK AO2
Loading
Personal Weather Stations






























Interactive Weather Map New forecast layout! Learn more

10-Day Weather Forecast

Advertisements
Track Severe Weather on mobile